createdAt,value
2024-02-23T00:01:01.574Z,10.3
2024-02-23T00:02:01.705Z,10.4
2024-02-23T00:03:01.372Z,10.4
2024-02-23T00:04:01.684Z,10.4
2024-02-23T00:05:01.873Z,10.4
2024-02-23T00:07:01.683Z,10.3
2024-02-23T00:08:01.743Z,10.3
2024-02-23T00:09:01.455Z,10.4
2024-02-23T00:10:01.487Z,10.3
2024-02-23T00:11:02.183Z,10.3
2024-02-23T00:12:02.474Z,10.4
2024-02-23T00:13:01.349Z,10.4
2024-02-23T00:14:01.862Z,10.3
2024-02-23T00:15:01.442Z,10.3
2024-02-23T00:16:01.501Z,10.4
2024-02-23T00:17:01.656Z,10.4
2024-02-23T00:18:01.614Z,10.3
2024-02-23T00:19:01.864Z,10.3
2024-02-23T00:20:01.576Z,10.2
2024-02-23T00:21:01.434Z,10.2
2024-02-23T00:22:01.724Z,10.2
2024-02-23T00:23:01.576Z,10.3
2024-02-23T00:24:01.460Z,10.2
2024-02-23T00:26:01.649Z,10.1
2024-02-23T00:27:01.446Z,10.2
2024-02-23T00:28:01.527Z,10.2
2024-02-23T00:29:01.541Z,10.2
2024-02-23T00:30:01.396Z,10.2
2024-02-23T00:31:01.479Z,10.2
2024-02-23T00:32:01.766Z,10.2
2024-02-23T00:33:01.853Z,10.1
2024-02-23T00:34:01.785Z,10.2
2024-02-23T00:35:01.578Z,10.1
2024-02-23T00:36:01.424Z,10.1
2024-02-23T00:37:01.436Z,10
2024-02-23T00:38:01.692Z,10.1
2024-02-23T00:40:01.435Z,10.2
2024-02-23T00:41:01.739Z,10.2
2024-02-23T00:43:01.396Z,10
2024-02-23T00:44:01.708Z,10.1
2024-02-23T00:46:01.399Z,9.9
2024-02-23T00:47:01.730Z,10
2024-02-23T00:48:01.916Z,10.1
2024-02-23T00:49:01.665Z,10.1
2024-02-23T00:50:01.688Z,10.1
2024-02-23T00:51:01.381Z,10.1
2024-02-23T00:52:01.440Z,10.1
2024-02-23T00:53:01.686Z,10
2024-02-23T00:54:01.426Z,9.9
2024-02-23T00:55:01.519Z,9.9
2024-02-23T00:56:01.724Z,9.9
2024-02-23T00:57:02.137Z,9.9
2024-02-23T00:59:01.681Z,9.9
2024-02-23T01:01:01.757Z,9.8
2024-02-23T01:02:01.574Z,9.9
2024-02-23T01:03:01.907Z,9.8
2024-02-23T01:05:02.489Z,9.8
2024-02-23T01:06:01.409Z,9.8
2024-02-23T01:07:01.566Z,9.8
2024-02-23T01:08:01.609Z,9.7
2024-02-23T01:09:01.427Z,9.8
2024-02-23T01:10:01.683Z,9.8
2024-02-23T01:11:02.061Z,9.8
2024-02-23T01:12:02.698Z,9.8
2024-02-23T01:13:01.486Z,9.8
2024-02-23T01:14:01.817Z,9.9
2024-02-23T01:15:06.958Z,9.9
2024-02-23T01:17:01.736Z,9.8
2024-02-23T01:18:01.808Z,9.8
2024-02-23T01:19:01.597Z,9.8
2024-02-23T01:20:02.477Z,9.9
2024-02-23T01:21:01.415Z,9.9
2024-02-23T01:22:02.338Z,9.8
2024-02-23T01:24:01.501Z,9.8
2024-02-23T01:25:01.413Z,9.8
2024-02-23T01:26:01.795Z,9.8
2024-02-23T01:28:01.441Z,9.9
2024-02-23T01:29:01.774Z,9.8
2024-02-23T01:30:01.444Z,9.8
2024-02-23T01:31:01.483Z,9.8
2024-02-23T01:32:01.733Z,9.8
2024-02-23T01:33:02.098Z,9.9
2024-02-23T01:34:02.095Z,9.8
2024-02-23T01:35:01.839Z,9.7
2024-02-23T01:38:01.766Z,9.7
2024-02-23T01:40:01.493Z,9.7
2024-02-23T01:41:01.704Z,9.8
2024-02-23T01:42:01.435Z,9.8
2024-02-23T01:43:03.986Z,9.9
2024-02-23T01:45:01.725Z,9.8
2024-02-23T01:47:01.844Z,9.6
2024-02-23T01:48:02.529Z,9.6
2024-02-23T01:49:01.621Z,9.6
2024-02-23T01:50:02.205Z,9.6
2024-02-23T01:51:01.404Z,9.7
2024-02-23T01:52:01.464Z,9.6
2024-02-23T01:53:01.600Z,9.7
2024-02-23T01:54:01.454Z,9.6
2024-02-23T01:55:01.518Z,9.7
2024-02-23T01:56:01.810Z,9.6
2024-02-23T01:57:51.019Z,9.7
2024-02-23T01:59:01.796Z,9.6
2024-02-23T02:01:01.779Z,9.6
2024-02-23T02:02:01.495Z,9.5
2024-02-23T02:03:01.407Z,9.5
2024-02-23T02:04:01.700Z,9.5
2024-02-23T02:05:01.921Z,9.4
2024-02-23T02:07:01.696Z,9.4
2024-02-23T02:08:02.298Z,9.5
2024-02-23T02:10:01.490Z,9.4
2024-02-23T02:11:02.161Z,9.3
2024-02-23T02:12:02.064Z,9.2
2024-02-23T02:14:01.908Z,9.2
2024-02-23T02:16:01.597Z,9.1
2024-02-23T02:19:01.808Z,9
2024-02-23T02:20:01.941Z,9
2024-02-23T02:21:01.502Z,9
2024-02-23T02:22:01.466Z,9.1
2024-02-23T02:23:01.982Z,9.1
2024-02-23T02:24:01.487Z,9.1
2024-02-23T02:25:01.564Z,9
2024-02-23T02:26:01.932Z,9
2024-02-23T02:27:01.438Z,9
2024-02-23T02:28:01.427Z,8.9
2024-02-23T02:29:01.687Z,8.9
2024-02-23T02:30:01.480Z,8.8
2024-02-23T02:31:01.439Z,8.8
2024-02-23T02:32:01.689Z,8.8
2024-02-23T02:33:01.736Z,8.7
2024-02-23T02:34:01.680Z,8.6
2024-02-23T02:35:01.952Z,8.6
2024-02-23T02:36:01.391Z,8.5
2024-02-23T02:37:01.411Z,8.5
2024-02-23T02:38:01.644Z,8.4
2024-02-23T02:39:01.459Z,8.4
2024-02-23T02:40:01.506Z,8.4
2024-02-23T02:41:01.679Z,8.4
2024-02-23T02:42:01.380Z,8.4
2024-02-23T02:43:01.545Z,8.4
2024-02-23T02:44:01.631Z,8.3
2024-02-23T02:45:02.716Z,8.3
2024-02-23T02:47:01.571Z,8.2
2024-02-23T02:48:01.867Z,8.2
2024-02-23T02:49:01.621Z,8.2
2024-02-23T02:50:01.813Z,8.1
2024-02-23T02:51:01.418Z,8.1
2024-02-23T02:52:01.462Z,8.1
2024-02-23T02:53:01.655Z,8.1
2024-02-23T02:54:01.495Z,8.1
2024-02-23T02:55:01.433Z,8.1
2024-02-23T02:56:01.735Z,8.1
2024-02-23T02:58:01.518Z,8.1
2024-02-23T02:59:01.590Z,8.1
2024-02-23T03:00:01.429Z,8.1
2024-02-23T03:01:01.669Z,8.1
2024-02-23T03:02:01.537Z,8.1
2024-02-23T03:03:01.413Z,8.1
2024-02-23T03:04:01.797Z,8.1
2024-02-23T03:05:01.693Z,8.1
2024-02-23T03:06:01.964Z,8.1
2024-02-23T03:08:01.986Z,8.1
2024-02-23T03:09:01.365Z,8.1
2024-02-23T03:10:01.590Z,8.1
2024-02-23T03:11:01.789Z,8.1
2024-02-23T03:12:01.999Z,8.1
2024-02-23T03:14:01.796Z,8.1
2024-02-23T03:15:01.628Z,8.1
2024-02-23T03:16:01.616Z,8.1
2024-02-23T03:17:01.719Z,8.1
2024-02-23T03:18:01.602Z,8.1
2024-02-23T03:19:01.836Z,8.1
2024-02-23T03:20:02.803Z,7.9
2024-02-23T03:21:01.332Z,7.9
2024-02-23T03:22:01.456Z,8
2024-02-23T03:23:01.599Z,8
2024-02-23T03:24:01.449Z,7.9
2024-02-23T03:25:01.368Z,7.9
2024-02-23T03:26:02.083Z,7.8
2024-02-23T03:27:02.888Z,7.8
2024-02-23T03:29:01.674Z,7.8
2024-02-23T03:30:01.341Z,7.8
2024-02-23T03:31:01.433Z,7.7
2024-02-23T03:32:01.604Z,7.7
2024-02-23T03:33:01.775Z,7.7
2024-02-23T03:35:01.814Z,7.6
2024-02-23T03:37:01.484Z,7.6
2024-02-23T03:38:01.849Z,7.6
2024-02-23T03:39:01.429Z,7.6
2024-02-23T03:40:01.515Z,7.6
2024-02-23T03:41:01.700Z,7.6
2024-02-23T03:43:02.639Z,7.5
2024-02-23T03:45:01.519Z,7.5
2024-02-23T03:46:01.489Z,7.5
2024-02-23T03:47:01.746Z,7.4
2024-02-23T03:48:01.827Z,7.4
2024-02-23T03:49:01.484Z,7.4
2024-02-23T03:50:01.830Z,7.4
2024-02-23T03:52:01.487Z,7.4
2024-02-23T03:53:01.637Z,7.3
2024-02-23T03:54:01.430Z,7.3
2024-02-23T03:55:01.502Z,7.3
2024-02-23T03:56:01.944Z,7.4
2024-02-23T03:58:01.523Z,7.3
2024-02-23T03:59:01.615Z,7.4
2024-02-23T04:01:01.880Z,7.4
2024-02-23T04:02:01.490Z,7.4
2024-02-23T04:03:01.504Z,7.4
2024-02-23T04:04:01.752Z,7.4
2024-02-23T04:05:01.936Z,7.4
2024-02-23T04:07:01.655Z,7.3
2024-02-23T04:08:01.682Z,7.2
2024-02-23T04:09:01.473Z,7.2
2024-02-23T04:10:01.460Z,7.2
2024-02-23T04:11:01.805Z,7.2
2024-02-23T04:12:02.734Z,7.2
2024-02-23T04:14:02.203Z,7.1
2024-02-23T04:15:01.361Z,7.1
2024-02-23T04:16:01.459Z,7.1
2024-02-23T04:17:01.609Z,7.1
2024-02-23T04:18:01.722Z,7.1
2024-02-23T04:19:01.761Z,7.1
2024-02-23T04:20:01.870Z,7.1
2024-02-23T04:21:01.415Z,7.1
2024-02-23T04:22:01.477Z,7
2024-02-23T04:23:01.708Z,7.1
2024-02-23T04:24:01.406Z,7
2024-02-23T04:25:01.505Z,6.9
2024-02-23T04:26:01.681Z,6.9
2024-02-23T04:27:01.701Z,6.9
2024-02-23T04:28:01.398Z,6.9
2024-02-23T04:29:01.618Z,6.9
2024-02-23T04:30:01.380Z,6.9
2024-02-23T04:31:01.444Z,6.9
2024-02-23T04:32:01.554Z,6.9
2024-02-23T04:33:01.686Z,6.9
2024-02-23T04:34:01.756Z,6.9
2024-02-23T04:35:01.611Z,6.9
2024-02-23T04:36:01.395Z,7
2024-02-23T04:37:01.457Z,7
2024-02-23T04:38:01.581Z,7
2024-02-23T04:39:01.447Z,7
2024-02-23T04:40:01.580Z,7.1
2024-02-23T04:41:01.595Z,7.2
2024-02-23T04:42:01.453Z,7.1
2024-02-23T04:44:04.373Z,7.1
2024-02-23T04:46:01.392Z,7.1
2024-02-23T04:47:01.639Z,7.1
2024-02-23T04:48:01.744Z,7
2024-02-23T04:49:01.733Z,7
2024-02-23T04:50:01.939Z,6.9
2024-02-23T04:52:01.470Z,6.9
2024-02-23T04:53:01.694Z,6.9
2024-02-23T04:54:01.491Z,6.9
2024-02-23T04:55:01.546Z,6.9
2024-02-23T04:56:01.748Z,6.9
2024-02-23T04:57:01.351Z,6.9
2024-02-23T04:58:01.479Z,6.9
2024-02-23T04:59:01.809Z,6.9
2024-02-23T05:00:01.515Z,6.9
2024-02-23T05:01:01.941Z,6.9
2024-02-23T05:02:01.924Z,6.9
2024-02-23T05:04:01.832Z,6.9
2024-02-23T05:05:01.851Z,6.9
2024-02-23T05:07:01.399Z,7
2024-02-23T05:08:01.762Z,7
2024-02-23T05:09:01.404Z,6.9
2024-02-23T05:10:01.420Z,7
2024-02-23T05:11:02.036Z,7
2024-02-23T05:12:02.900Z,7.1
2024-02-23T05:14:01.751Z,6.9
2024-02-23T05:16:01.490Z,6.9
2024-02-23T05:17:01.605Z,6.9
2024-02-23T05:18:01.703Z,6.9
2024-02-23T05:19:01.544Z,6.9
2024-02-23T05:20:02.015Z,6.9
2024-02-23T05:21:01.364Z,7
2024-02-23T05:22:01.462Z,7.1
2024-02-23T05:23:01.604Z,7
2024-02-23T05:25:01.484Z,6.9
2024-02-23T05:26:01.482Z,6.9
2024-02-23T05:27:01.688Z,6.9
2024-02-23T05:28:01.441Z,6.9
2024-02-23T05:29:01.781Z,6.9
2024-02-23T05:30:01.444Z,6.8
2024-02-23T05:31:01.732Z,6.8
2024-02-23T05:32:01.607Z,6.6
2024-02-23T05:33:01.631Z,6.6
2024-02-23T05:34:01.826Z,6.6
2024-02-23T05:35:01.715Z,6.6
2024-02-23T05:36:01.355Z,6.8
2024-02-23T05:37:01.430Z,6.7
2024-02-23T05:38:01.662Z,6.7
2024-02-23T05:39:01.448Z,6.8
2024-02-23T05:40:02.187Z,6.8
2024-02-23T05:42:01.810Z,6.8
2024-02-23T05:43:01.468Z,6.7
2024-02-23T05:44:01.682Z,6.8
2024-02-23T05:46:01.468Z,6.8
2024-02-23T05:47:01.797Z,6.8
2024-02-23T05:48:02.586Z,6.9
2024-02-23T05:49:02.236Z,6.8
2024-02-23T05:51:01.413Z,6.8
2024-02-23T05:52:01.431Z,6.9
2024-02-23T05:53:01.682Z,6.9
2024-02-23T05:55:01.499Z,6.7
2024-02-23T05:56:01.480Z,6.7
2024-02-23T05:57:01.397Z,6.7
2024-02-23T05:58:01.457Z,6.6
2024-02-23T05:59:01.614Z,6.8
2024-02-23T06:00:01.484Z,6.6
2024-02-23T06:01:01.583Z,6.6
2024-02-23T06:02:01.687Z,6.7
2024-02-23T06:03:01.389Z,6.7
2024-02-23T06:04:01.429Z,6.7
2024-02-23T06:05:02.401Z,6.8
2024-02-23T06:06:02.203Z,6.7
2024-02-23T06:07:02.952Z,6.7
2024-02-23T06:09:01.435Z,6.8
2024-02-23T06:10:01.475Z,6.6
2024-02-23T06:11:02.098Z,6.6
2024-02-23T06:12:01.915Z,6.4
2024-02-23T06:13:05.696Z,6.5
2024-02-23T06:15:01.527Z,6.6
2024-02-23T06:16:01.430Z,6.6
2024-02-23T06:17:01.586Z,6.6
2024-02-23T06:18:01.755Z,6.5
2024-02-23T06:19:01.678Z,6.6
2024-02-23T06:20:08.181Z,6.6
2024-02-23T06:21:01.374Z,6.6
2024-02-23T06:22:01.412Z,6.6
2024-02-23T06:23:01.810Z,6.6
2024-02-23T06:24:01.398Z,6.6
2024-02-23T06:25:01.450Z,6.6
2024-02-23T06:26:01.890Z,6.7
2024-02-23T06:28:01.465Z,6.7
2024-02-23T06:29:02.038Z,6.6
2024-02-23T06:31:01.452Z,6.6
2024-02-23T06:32:01.959Z,6.8
2024-02-23T06:33:02.521Z,6.8
2024-02-23T06:34:01.833Z,6.8
2024-02-23T06:35:02.924Z,6.8
2024-02-23T06:37:01.461Z,6.8
2024-02-23T06:38:01.670Z,6.8
2024-02-23T06:40:01.450Z,6.9
2024-02-23T06:41:02.114Z,6.9
2024-02-23T06:42:01.363Z,6.9
2024-02-23T06:43:01.537Z,6.9
2024-02-23T06:44:01.544Z,7
2024-02-23T06:45:01.399Z,7
2024-02-23T06:46:01.434Z,7
2024-02-23T06:47:01.590Z,7.1
2024-02-23T06:48:01.767Z,7.1
2024-02-23T06:49:02.274Z,7.1
2024-02-23T06:50:01.728Z,7.1
2024-02-23T06:52:01.430Z,7.1
2024-02-23T06:53:01.599Z,7.1
2024-02-23T06:55:01.437Z,7
2024-02-23T06:56:01.840Z,7
2024-02-23T06:57:01.371Z,7.1
2024-02-23T06:58:01.488Z,7.1
2024-02-23T06:59:01.538Z,7.1
2024-02-23T07:00:01.418Z,7.1
2024-02-23T07:01:01.721Z,7.1
2024-02-23T07:02:01.868Z,7.1
2024-02-23T07:04:01.822Z,7.1
2024-02-23T07:05:01.701Z,7.1
2024-02-23T07:06:01.883Z,7.2
2024-02-23T07:08:02.031Z,7.2
2024-02-23T07:09:01.320Z,7.2
2024-02-23T07:10:01.441Z,7.2
2024-02-23T07:11:02.163Z,7.2
2024-02-23T07:13:06.284Z,7.3
2024-02-23T07:15:01.507Z,7.2
2024-02-23T07:16:01.462Z,7.3
2024-02-23T07:17:01.746Z,7.3
2024-02-23T07:18:01.704Z,7.2
2024-02-23T07:19:01.790Z,7.2
2024-02-23T07:20:01.574Z,7.2
2024-02-23T07:21:01.410Z,7.2
2024-02-23T07:22:01.452Z,7.2
2024-02-23T07:23:01.670Z,7.2
2024-02-23T07:24:01.369Z,7.2
2024-02-23T07:25:01.418Z,7.2
2024-02-23T07:26:01.665Z,7.2
2024-02-23T07:27:01.510Z,7.3
2024-02-23T07:28:01.437Z,7.2
2024-02-23T07:29:01.776Z,7.3
2024-02-23T07:30:01.451Z,7.3
2024-02-23T07:31:01.602Z,7.3
2024-02-23T07:32:01.578Z,7.3
2024-02-23T07:33:02.021Z,7.3
2024-02-23T07:34:02.985Z,7.3
2024-02-23T07:36:01.466Z,7.2
2024-02-23T07:37:01.533Z,7.3
2024-02-23T07:38:01.663Z,7.3
2024-02-23T07:39:01.456Z,7.3
2024-02-23T07:40:01.537Z,7.4
2024-02-23T07:41:01.742Z,7.4
2024-02-23T07:42:01.420Z,7.4
2024-02-23T07:43:01.505Z,7.5
2024-02-23T07:44:01.785Z,7.5
2024-02-23T07:45:01.392Z,7.5
2024-02-23T07:46:01.463Z,7.5
2024-02-23T07:47:01.722Z,7.5
2024-02-23T07:48:01.971Z,7.5
2024-02-23T07:49:01.806Z,7.6
2024-02-23T07:50:01.771Z,7.6
2024-02-23T07:51:01.444Z,7.6
2024-02-23T07:52:01.728Z,7.6
2024-02-23T07:53:01.616Z,7.7
2024-02-23T07:55:01.658Z,7.7
2024-02-23T07:56:01.705Z,7.7
2024-02-23T07:57:01.416Z,7.7
2024-02-23T07:58:01.429Z,7.7
2024-02-23T07:59:01.645Z,7.7
2024-02-23T08:00:01.972Z,7.7
2024-02-23T08:02:01.762Z,7.8
2024-02-23T08:03:01.501Z,7.8
2024-02-23T08:04:01.454Z,7.8
2024-02-23T08:05:02.583Z,7.8
2024-02-23T08:06:05.455Z,7.8
2024-02-23T08:08:02.422Z,7.8
2024-02-23T08:09:01.420Z,7.8
2024-02-23T08:10:01.472Z,7.9
2024-02-23T08:11:02.296Z,7.9
2024-02-23T08:12:01.789Z,8
2024-02-23T08:13:01.448Z,8.1
2024-02-23T08:14:01.765Z,8.1
2024-02-23T08:15:01.474Z,8.1
2024-02-23T08:16:01.473Z,8.1
2024-02-23T08:17:02.085Z,8.1
2024-02-23T08:19:01.716Z,8.1
2024-02-23T08:20:02.639Z,8.1
2024-02-23T08:22:01.524Z,8.1
2024-02-23T08:23:01.987Z,8.2
2024-02-23T08:24:01.446Z,8.2
2024-02-23T08:25:01.474Z,8.2
2024-02-23T08:26:01.699Z,8.2
2024-02-23T08:27:01.428Z,8.2
2024-02-23T08:28:01.453Z,8.3
2024-02-23T08:29:02.012Z,8.4
2024-02-23T08:30:01.472Z,8.5
2024-02-23T08:32:01.840Z,8.6
2024-02-23T08:33:02.000Z,8.7
2024-02-23T08:35:02.609Z,8.6
2024-02-23T08:36:01.392Z,8.8
2024-02-23T08:37:01.510Z,9
2024-02-23T08:38:01.624Z,9.1
2024-02-23T08:39:01.785Z,9.1
2024-02-23T08:40:01.380Z,9.2
2024-02-23T08:41:01.807Z,9.4
2024-02-23T08:42:01.400Z,9.4
2024-02-23T08:43:01.421Z,9.4
2024-02-23T08:44:01.583Z,9.5
2024-02-23T08:45:01.401Z,9.5
2024-02-23T08:46:11.232Z,9.4
2024-02-23T08:48:01.720Z,9.2
2024-02-23T08:49:02.001Z,9.4
2024-02-23T08:50:01.565Z,9.2
2024-02-23T08:51:01.375Z,9.3
2024-02-23T08:52:01.502Z,9.5
2024-02-23T08:53:01.639Z,9.6
2024-02-23T08:54:02.229Z,9.8
2024-02-23T08:56:01.956Z,9.6
2024-02-23T08:57:01.428Z,9.4
2024-02-23T08:58:01.428Z,9.5
2024-02-23T08:59:01.690Z,9.5
2024-02-23T09:00:01.440Z,9.4
2024-02-23T09:01:01.727Z,9.4
2024-02-23T09:02:01.538Z,9.2
2024-02-23T09:03:01.433Z,9.1
2024-02-23T09:04:01.537Z,9.1
2024-02-23T09:05:02.477Z,9.2
2024-02-23T09:06:03.446Z,9.2
2024-02-23T09:08:01.794Z,9.8
2024-02-23T09:09:01.372Z,10
2024-02-23T09:10:01.486Z,10.1
2024-02-23T09:11:02.093Z,9.9
2024-02-23T09:12:02.208Z,9.9
2024-02-23T09:13:01.342Z,10.2
2024-02-23T09:14:02.080Z,10.4
2024-02-23T09:16:01.784Z,10.6
2024-02-23T09:17:01.557Z,10.4
2024-02-23T09:18:01.733Z,10.1
2024-02-23T09:19:01.829Z,9.8
2024-02-23T09:20:02.035Z,9.9
2024-02-23T09:21:01.461Z,9.9
2024-02-23T09:22:01.489Z,10
2024-02-23T09:23:01.571Z,10.3
2024-02-23T09:24:01.443Z,10
2024-02-23T09:26:02.452Z,9.8
2024-02-23T09:27:01.330Z,9.8
2024-02-23T09:28:01.446Z,10
2024-02-23T09:29:01.929Z,10.1
2024-02-23T09:30:02.574Z,9.9
2024-02-23T09:32:01.675Z,9.5
2024-02-23T09:33:02.154Z,9.6
2024-02-23T09:34:02.401Z,9.6
2024-02-23T09:35:01.456Z,9.5
2024-02-23T09:36:01.584Z,9.4
2024-02-23T09:37:01.453Z,9.6
2024-02-23T09:38:01.705Z,9.3
2024-02-23T09:39:01.403Z,9.2
2024-02-23T09:40:01.789Z,9.4
2024-02-23T09:41:01.537Z,9.8
2024-02-23T09:42:01.430Z,10.1
2024-02-23T09:44:01.737Z,10.4
2024-02-23T09:45:02.003Z,10.6
2024-02-23T09:47:01.671Z,10.6
2024-02-23T09:48:02.428Z,10.8
2024-02-23T09:49:01.898Z,11.2
2024-02-23T09:51:01.465Z,10.8
2024-02-23T09:53:02.398Z,11
2024-02-23T09:54:01.536Z,10.6
2024-02-23T09:55:01.540Z,10.3
2024-02-23T09:56:01.671Z,10.2
2024-02-23T09:57:01.386Z,10.4
2024-02-23T09:58:01.622Z,10.2
2024-02-23T09:59:01.911Z,10.4
2024-02-23T10:00:01.488Z,10.3
2024-02-23T10:01:01.707Z,10.5
2024-02-23T10:02:01.778Z,10.6
2024-02-23T10:03:01.409Z,11.1
2024-02-23T10:04:01.966Z,11.9
2024-02-23T10:05:01.621Z,12.4
2024-02-23T10:06:02.345Z,12.5
2024-02-23T10:07:01.793Z,12.4
2024-02-23T10:08:02.661Z,11.8
2024-02-23T10:09:02.001Z,11.5
2024-02-23T10:11:02.101Z,11.4
2024-02-23T10:12:02.377Z,11.5
2024-02-23T10:14:01.629Z,11.8
2024-02-23T10:15:01.420Z,11.7
2024-02-23T10:16:17.077Z,11.4
2024-02-23T10:18:02.799Z,10.9
2024-02-23T10:20:01.719Z,11.3
2024-02-23T10:21:01.445Z,11.3
2024-02-23T10:23:01.517Z,12.1
2024-02-23T10:24:01.430Z,12.3
2024-02-23T10:25:01.878Z,13
2024-02-23T10:26:01.504Z,12.8
2024-02-23T10:27:01.508Z,12.8
2024-02-23T10:28:01.438Z,12.3
2024-02-23T10:29:01.655Z,11.6
2024-02-23T10:30:01.951Z,11.5
2024-02-23T10:31:01.505Z,11.8
2024-02-23T10:32:01.753Z,12.1
2024-02-23T10:33:01.978Z,12.6
2024-02-23T10:34:01.751Z,12.8
2024-02-23T10:35:02.449Z,12.9
2024-02-23T10:36:01.744Z,12.5
2024-02-23T10:37:01.471Z,12.6
2024-02-23T10:38:01.645Z,12.4
2024-02-23T10:39:01.535Z,12.8
2024-02-23T10:40:01.814Z,12.8
2024-02-23T10:41:01.644Z,13.2
2024-02-23T10:42:01.510Z,12.9
2024-02-23T10:43:01.425Z,12.9
2024-02-23T10:44:01.852Z,12.6
2024-02-23T10:45:01.471Z,12.2
2024-02-23T10:47:02.311Z,12
2024-02-23T10:48:02.062Z,11.9
2024-02-23T10:49:02.179Z,12.2
2024-02-23T10:50:01.592Z,12.5
2024-02-23T10:51:01.451Z,12.3
2024-02-23T10:52:01.644Z,12.4
2024-02-23T10:53:01.508Z,12.2
2024-02-23T10:54:01.516Z,12.2
2024-02-23T10:55:01.445Z,12.6
2024-02-23T10:56:01.751Z,12.8
2024-02-23T10:58:01.528Z,12.6
2024-02-23T10:59:01.647Z,12.6
2024-02-23T11:00:01.617Z,12.3
2024-02-23T11:01:01.832Z,12.4
2024-02-23T11:02:02.021Z,12.5
2024-02-23T11:03:01.374Z,12.7
2024-02-23T11:04:01.468Z,12.6
2024-02-23T11:05:02.666Z,12.8
2024-02-23T11:07:01.729Z,12.9
2024-02-23T11:08:01.646Z,12.8
2024-02-23T11:10:01.518Z,11.6
2024-02-23T11:11:01.979Z,11.3
2024-02-23T11:12:02.452Z,11.4
2024-02-23T11:14:01.754Z,11.2
2024-02-23T11:15:01.819Z,11.2
2024-02-23T11:17:01.683Z,11.1
2024-02-23T11:18:02.088Z,11.2
2024-02-23T11:20:02.533Z,11.4
2024-02-23T11:21:01.430Z,11.4
2024-02-23T11:22:01.575Z,11.5
2024-02-23T11:23:01.908Z,11.6
2024-02-23T11:25:01.502Z,11.5
2024-02-23T11:26:01.629Z,11.3
2024-02-23T11:28:01.502Z,11.2
2024-02-23T11:29:01.569Z,11.2
2024-02-23T11:30:01.426Z,11.1
2024-02-23T11:31:01.465Z,10.9
2024-02-23T11:32:01.905Z,10.9
2024-02-23T11:33:02.051Z,10.9
2024-02-23T11:35:01.955Z,10.6
2024-02-23T11:37:01.518Z,10.5
2024-02-23T11:38:02.216Z,10.4
2024-02-23T11:39:01.428Z,10.4
2024-02-23T11:40:01.545Z,10.2
2024-02-23T11:41:01.605Z,10.1
2024-02-23T11:42:01.475Z,10.1
2024-02-23T11:43:01.854Z,10
2024-02-23T11:44:01.754Z,10
2024-02-23T11:45:01.453Z,9.9
2024-02-23T11:46:01.496Z,9.8
2024-02-23T11:47:01.894Z,9.8
2024-02-23T11:48:03.056Z,9.9
2024-02-23T11:50:01.756Z,9.8
2024-02-23T11:52:01.813Z,9.7
2024-02-23T11:54:01.456Z,9.8
2024-02-23T11:55:01.518Z,9.9
2024-02-23T11:56:01.793Z,9.9
2024-02-23T11:57:01.345Z,9.9
2024-02-23T11:58:20.065Z,9.8
2024-02-23T12:00:01.437Z,9.8
2024-02-23T12:01:01.736Z,9.8
2024-02-23T12:02:07.109Z,9.8
2024-02-23T12:04:01.867Z,9.7
2024-02-23T12:05:02.450Z,9.8
2024-02-23T12:06:01.841Z,9.8
2024-02-23T12:08:01.765Z,9.9
2024-02-23T12:10:01.405Z,9.9
2024-02-23T12:11:02.445Z,9.9
2024-02-23T12:12:01.730Z,10.1
2024-02-23T12:13:01.438Z,10
2024-02-23T12:14:02.268Z,9.9
2024-02-23T12:15:01.334Z,9.9
2024-02-23T12:16:01.430Z,9.9
2024-02-23T12:17:01.787Z,9.9
2024-02-23T12:18:01.930Z,10
2024-02-23T12:20:02.807Z,10.3
2024-02-23T12:22:01.747Z,10.4
2024-02-23T12:23:01.484Z,10.4
2024-02-23T12:24:01.439Z,10.3
2024-02-23T12:25:01.449Z,10.3
2024-02-23T12:26:01.753Z,10.2
2024-02-23T12:27:01.416Z,10.3
2024-02-23T12:28:01.410Z,10.3
2024-02-23T12:29:01.542Z,10.3
2024-02-23T12:30:01.492Z,10.3
2024-02-23T12:32:03.351Z,10.2
2024-02-23T12:34:02.370Z,10.1
2024-02-23T12:36:01.541Z,10.1
2024-02-23T12:37:01.388Z,10.1
2024-02-23T12:38:01.594Z,10.2
2024-02-23T12:39:01.415Z,10.2
2024-02-23T12:40:01.425Z,10.2
2024-02-23T12:41:01.895Z,10.2
2024-02-23T12:42:01.406Z,10.2
2024-02-23T12:43:01.379Z,10.2
2024-02-23T12:44:01.949Z,10.2
2024-02-23T12:46:01.460Z,10.7
2024-02-23T12:47:01.706Z,10.7
2024-02-23T12:48:02.192Z,10.6
2024-02-23T12:49:01.656Z,10.6
2024-02-23T12:50:01.814Z,10.4
2024-02-23T12:51:01.474Z,10.4
2024-02-23T12:52:01.484Z,10.6
2024-02-23T12:53:01.801Z,10.6
2024-02-23T12:54:01.342Z,10.5
2024-02-23T12:55:01.459Z,10.4
2024-02-23T12:56:01.648Z,10.3
2024-02-23T12:57:01.437Z,10.2
2024-02-23T12:58:01.405Z,10.2
2024-02-23T12:59:01.821Z,10.3
2024-02-23T13:00:01.448Z,10.4
2024-02-23T13:01:01.716Z,10.4
2024-02-23T13:02:02.084Z,10.4
2024-02-23T13:04:01.916Z,10.4
2024-02-23T13:05:01.988Z,10.5
2024-02-23T13:06:01.323Z,10.4
2024-02-23T13:07:02.168Z,10.4
2024-02-23T13:08:01.453Z,10.4
2024-02-23T13:09:01.734Z,10.4
2024-02-23T13:11:02.087Z,10.5
2024-02-23T13:12:02.332Z,10.8
2024-02-23T13:13:01.392Z,10.9
2024-02-23T13:14:01.726Z,11
2024-02-23T13:15:01.477Z,10.8
2024-02-23T13:16:01.512Z,10.7
2024-02-23T13:17:01.594Z,10.6
2024-02-23T13:18:01.690Z,10.6
2024-02-23T13:19:01.756Z,10.9
2024-02-23T13:20:13.473Z,10.9
2024-02-23T13:22:01.409Z,10.9
2024-02-23T13:23:01.632Z,11.1
2024-02-23T13:25:01.438Z,11.2
2024-02-23T13:26:01.735Z,11.4
2024-02-23T13:28:01.471Z,11.4
2024-02-23T13:29:01.734Z,11.6
2024-02-23T13:30:01.400Z,11.6
2024-02-23T13:31:01.439Z,11.5
2024-02-23T13:32:01.715Z,11.5
2024-02-23T13:33:02.748Z,11.8
2024-02-23T13:35:02.011Z,11.6
2024-02-23T13:36:01.404Z,11.3
2024-02-23T13:37:01.434Z,11.4
2024-02-23T13:38:01.889Z,11.2
2024-02-23T13:39:02.302Z,10.9
2024-02-23T13:41:01.673Z,10.9
2024-02-23T13:43:01.649Z,10.8
2024-02-23T13:44:01.691Z,10.9
2024-02-23T13:45:02.208Z,10.9
2024-02-23T13:47:01.682Z,10.8
2024-02-23T13:48:03.236Z,10.7
2024-02-23T13:49:01.658Z,10.6
2024-02-23T13:50:01.945Z,10.7
2024-02-23T13:51:01.614Z,10.8
2024-02-23T13:53:01.706Z,10.8
2024-02-23T13:54:01.338Z,10.9
2024-02-23T13:55:01.774Z,11
2024-02-23T13:57:01.389Z,10.9
2024-02-23T13:58:01.460Z,10.9
2024-02-23T13:59:01.966Z,11.1
2024-02-23T14:00:01.506Z,10.9
2024-02-23T14:01:02.034Z,10.8
2024-02-23T14:02:01.579Z,10.8
2024-02-23T14:03:02.026Z,10.8
2024-02-23T14:04:02.149Z,11
2024-02-23T14:05:01.788Z,10.9
2024-02-23T14:06:01.865Z,11
2024-02-23T14:07:01.662Z,11
2024-02-23T14:08:01.555Z,10.9
2024-02-23T14:10:01.559Z,10.9
2024-02-23T14:11:01.865Z,10.9
2024-02-23T14:12:02.341Z,11.1
2024-02-23T14:13:01.403Z,11.2
2024-02-23T14:14:01.745Z,11.4
2024-02-23T14:15:01.747Z,11.4
2024-02-23T14:16:01.422Z,11.6
2024-02-23T14:17:01.649Z,11.7
2024-02-23T14:18:02.122Z,11.6
2024-02-23T14:20:02.736Z,11.6
2024-02-23T14:22:01.441Z,11.3
2024-02-23T14:23:01.816Z,11.3
2024-02-23T14:24:01.383Z,11.4
2024-02-23T14:25:01.734Z,11.4
2024-02-23T14:26:01.778Z,11.2
2024-02-23T14:28:01.454Z,11.2
2024-02-23T14:29:01.843Z,11.4
2024-02-23T14:30:01.850Z,11.4
2024-02-23T14:31:01.355Z,11.3
2024-02-23T14:32:01.647Z,11.4
2024-02-23T14:33:02.108Z,11.2
2024-02-23T14:34:02.215Z,11.3
2024-02-23T14:35:03.041Z,11.3
2024-02-23T14:36:01.418Z,11.4
2024-02-23T14:37:01.449Z,11.4
2024-02-23T14:38:02.049Z,11.5
2024-02-23T14:39:01.878Z,11.6
2024-02-23T14:41:01.785Z,11.6
2024-02-23T14:42:01.629Z,11.5
2024-02-23T14:44:01.955Z,11.3
2024-02-23T14:45:01.424Z,11.2
2024-02-23T14:46:01.689Z,11.1
2024-02-23T14:47:01.610Z,11
2024-02-23T14:48:01.953Z,11
2024-02-23T14:49:01.703Z,11.1
2024-02-23T14:50:02.503Z,11
2024-02-23T14:52:01.525Z,10.8
2024-02-23T14:53:01.774Z,10.7
2024-02-23T14:54:01.369Z,10.7
2024-02-23T14:55:01.412Z,10.6
2024-02-23T14:56:01.633Z,10.6
2024-02-23T14:57:01.417Z,10.6
2024-02-23T14:58:01.444Z,10.7
2024-02-23T14:59:01.599Z,10.7
2024-02-23T15:00:01.503Z,10.8
2024-02-23T15:01:01.867Z,10.8
2024-02-23T15:03:01.500Z,10.6
2024-02-23T15:04:01.423Z,10.6
2024-02-23T15:05:02.858Z,10.6
2024-02-23T15:07:01.717Z,10.5
2024-02-23T15:08:01.635Z,10.5
2024-02-23T15:09:01.413Z,10.4
2024-02-23T15:10:01.436Z,10.5
2024-02-23T15:11:02.187Z,10.4
2024-02-23T15:13:01.368Z,10.4
2024-02-23T15:14:01.655Z,10.4
2024-02-23T15:16:01.434Z,10.4
2024-02-23T15:17:01.625Z,10.3
2024-02-23T15:18:02.147Z,10.2
2024-02-23T15:20:02.640Z,10.2
2024-02-23T15:21:01.556Z,10.3
2024-02-23T15:22:01.455Z,10.2
2024-02-23T15:23:01.671Z,10.2
2024-02-23T15:24:01.829Z,10.2
2024-02-23T15:25:02.148Z,10.2
2024-02-23T15:26:13.163Z,10.2
2024-02-23T15:28:01.621Z,10.2
2024-02-23T15:29:01.828Z,10.2
2024-02-23T15:30:01.640Z,10.2
2024-02-23T15:31:01.461Z,10.2
2024-02-23T15:32:01.755Z,10.2
2024-02-23T15:33:02.676Z,10.2
2024-02-23T15:34:02.432Z,10.2
2024-02-23T15:36:01.466Z,10.2
2024-02-23T15:37:01.389Z,10.2
2024-02-23T15:38:01.689Z,10.1
2024-02-23T15:39:07.534Z,10.1
2024-02-23T15:41:01.678Z,10.1
2024-02-23T15:42:01.337Z,10.1
2024-02-23T15:43:05.469Z,10.1
2024-02-23T15:45:01.443Z,10.1
2024-02-23T15:46:01.506Z,10.1
2024-02-23T15:47:01.814Z,10.2
2024-02-23T15:48:01.911Z,10.1
2024-02-23T15:53:02.628Z,10.1
2024-02-23T15:54:01.461Z,10.1
2024-02-23T15:55:01.515Z,10.1
2024-02-23T15:56:01.610Z,10.1
2024-02-23T15:57:01.423Z,10.1
2024-02-23T15:58:01.441Z,10.1